Time;durP1;ratioP1;P1;durP2;ratioP2;P2;SDS_P1;SDS_P2;PMS_P1;PMS_P2;Temp;Humidity;BMP_temperature;BMP_pressure;BME280_temperature;BME280_humidity;BME280_pressure;Samples;Min_cycle;Max_cycle;Signal;HPM_P1;HPM_P2
2021/11/20 00:02:02;;;;;;;8.07;5.63;;;;;;;9.71;100.00;101558.72;5039845;28;20209;-73
2021/11/20 00:04:29;;;;;;;7.23;4.93;;;;;;;9.71;100.00;101557.84;5039531;28;20678;-72
2021/11/20 00:06:58;;;;;;;8.27;5.40;;;;;;;9.71;100.00;101563.94;5044840;28;20673;-72
2021/11/20 00:09:27;;;;;;;9.73;5.23;;;;;;;9.71;100.00;101558.72;5042765;28;20442;-72
2021/11/20 00:11:56;;;;;;;8.90;5.40;;;;;;;9.67;100.00;101557.00;5041110;28;20217;-72
2021/11/20 00:14:24;;;;;;;9.27;5.30;;;;;;;9.70;100.00;101569.16;5034486;28;20599;-73
2021/11/20 00:16:53;;;;;;;10.80;5.60;;;;;;;9.69;100.00;101560.44;5040333;28;20216;-73
2021/11/20 00:19:23;;;;;;;6.40;4.67;;;;;;;9.68;100.00;101563.94;5040831;28;20311;-72
2021/11/20 00:21:52;;;;;;;8.90;4.77;;;;;;;9.68;100.00;101565.69;5040782;28;20213;-73
2021/11/20 00:24:23;;;;;;;8.67;5.10;;;;;;;9.66;100.00;101563.09;5040302;28;20211;-73
2021/11/20 00:26:51;;;;;;;7.80;5.37;;;;;;;9.65;100.00;101561.38;5040391;28;20232;-75
2021/11/20 00:29:26;;;;;;;8.30;4.83;;;;;;;9.66;100.00;101563.97;5043030;28;20761;-76
2021/11/20 00:31:56;;;;;;;6.90;5.17;;;;;;;9.66;100.00;101568.31;5021246;28;20304;-76
2021/11/20 00:34:28;;;;;;;8.63;5.40;;;;;;;9.68;100.00;101568.31;5023825;28;20693;-76
2021/11/20 00:36:56;;;;;;;7.17;5.03;;;;;;;9.68;100.00;101560.50;5043023;28;20211;-76
2021/11/20 00:39:26;;;;;;;6.47;4.57;;;;;;;9.67;100.00;101564.81;5039949;28;20240;-72
2021/11/20 00:41:53;;;;;;;9.80;5.17;;;;;;;9.66;100.00;101569.16;5023293;28;20579;-71
2021/11/20 00:44:21;;;;;;;11.90;7.23;;;;;;;9.64;100.00;101573.53;5023580;28;20295;-76
2021/11/20 00:46:49;;;;;;;9.30;5.10;;;;;;;9.64;100.00;101573.53;5025249;28;20201;-73
2021/11/20 00:49:17;;;;;;;5.83;4.60;;;;;;;9.65;100.00;101579.59;5020949;28;20242;-73
2021/11/20 00:51:46;;;;;;;9.03;5.57;;;;;;;9.64;100.00;101580.47;5018395;28;20657;-73
2021/11/20 00:54:16;;;;;;;7.83;5.20;;;;;;;9.64;100.00;101583.09;5043157;28;20544;-73
2021/11/20 00:56:43;;;;;;;8.07;5.80;;;;;;;9.62;100.00;101579.59;5036062;28;20210;-72
2021/11/20 00:59:11;;;;;;;8.70;4.80;;;;;;;9.60;100.00;101582.25;5024441;28;20222;-73
2021/11/20 01:01:41;;;;;;;6.00;5.07;;;;;;;9.58;100.00;101577.91;5024614;28;20234;-73
2021/11/20 01:04:08;;;;;;;6.53;4.93;;;;;;;9.57;100.00;101570.97;5022674;28;20600;-73
2021/11/20 01:06:37;;;;;;;6.63;4.73;;;;;;;9.57;100.00;101569.25;5019998;28;20196;-73
2021/11/20 01:09:11;;;;;;;9.33;4.87;;;;;;;9.55;100.00;101564.91;5022670;28;20252;-73
2021/11/20 01:11:42;;;;;;;8.00;4.93;;;;;;;9.56;100.00;101566.66;5019754;28;20402;-72
2021/11/20 01:14:12;;;;;;;7.30;5.20;;;;;;;9.56;100.00;101582.25;5024625;28;20239;-73
2021/11/20 01:16:39;;;;;;;5.70;4.70;;;;;;;9.55;100.00;101568.41;5018454;28;20265;-73
2021/11/20 01:19:06;;;;;;;6.60;5.13;;;;;;;9.54;100.00;101566.66;5023028;28;20228;-73
2021/11/20 01:22:12;;;;;;;10.97;5.03;;;;;;;9.57;100.00;101566.63;5036682;28;20590;-73
2021/11/20 01:24:59;;;;;;;10.60;4.50;;;;;;;9.57;100.00;101568.34;5040787;28;20957;-73
2021/11/20 01:27:42;;;;;;;7.93;4.67;;;;;;;9.58;100.00;101568.34;5019079;28;20235;-73
2021/11/20 01:30:29;;;;;;;7.93;4.87;;;;;;;9.58;100.00;101570.94;5043087;28;20226;-72
2021/11/20 01:32:57;;;;;;;8.60;5.13;;;;;;;9.59;100.00;101577.03;5020511;28;20303;-73
2021/11/20 01:35:24;;;;;;;8.20;5.20;;;;;;;9.58;100.00;101567.50;5024261;28;20203;-73
2021/11/20 01:38:01;;;;;;;7.33;5.10;;;;;;;9.58;100.00;101576.16;5018461;28;20215;-72
2021/11/20 01:40:31;;;;;;;8.00;4.53;;;;;;;9.58;100.00;101572.69;5040939;28;20231;-72
2021/11/20 01:42:59;;;;;;;6.70;4.50;;;;;;;9.59;100.00;101575.28;5021264;28;20300;-73
2021/11/20 01:45:32;;;;;;;7.37;4.80;;;;;;;9.57;100.00;101569.25;5018813;28;20224;-73
2021/11/20 01:48:24;;;;;;;6.07;4.83;;;;;;;9.59;100.00;101571.84;5021528;28;20204;-73
2021/11/20 01:50:58;;;;;;;6.97;5.00;;;;;;;9.59;100.00;101570.09;5021537;28;20229;-72
2021/11/20 01:53:30;;;;;;;8.83;4.77;;;;;;;9.59;100.00;101564.03;5044962;28;20201;-73
2021/11/20 01:56:06;;;;;;;7.13;4.93;;;;;;;9.60;100.00;101563.13;5040427;28;20742;-72
2021/11/20 01:58:42;;;;;;;8.30;4.97;;;;;;;9.59;100.00;101561.41;5022054;28;20234;-73
2021/11/20 02:01:28;;;;;;;6.20;4.53;;;;;;;9.59;100.00;101566.63;5021263;28;20288;-73
2021/11/20 02:04:09;;;;;;;6.87;4.73;;;;;;;9.59;100.00;101570.09;5023154;28;20208;-73
2021/11/20 02:06:50;;;;;;;6.13;4.23;;;;;;;9.59;100.00;101557.06;5025316;28;20296;-73
2021/11/20 02:09:24;;;;;;;7.43;4.53;;;;;;;9.60;100.00;101556.22;5021051;28;20233;-73
2021/11/20 02:12:29;;;;;;;10.80;4.70;;;;;;;9.63;100.00;101552.69;5037767;28;20661;-73
2021/11/20 02:15:00;;;;;;;6.97;4.63;;;;;;;9.60;100.00;101545.78;5022821;28;20253;-73
2021/11/20 02:17:32;;;;;;;7.93;5.13;;;;;;;9.59;100.00;101548.41;5023656;28;20199;-73
2021/11/20 02:20:05;;;;;;;6.33;5.00;;;;;;;9.60;100.00;101531.88;5023110;28;20236;-73
2021/11/20 02:22:36;;;;;;;8.70;6.10;;;;;;;9.61;100.00;101537.09;5022040;28;20266;-73
2021/11/20 02:25:04;;;;;;;11.33;5.30;;;;;;;9.63;100.00;101539.69;5021036;28;20209;-73
2021/11/20 02:28:03;;;;;;;9.57;5.40;;;;;;;9.65;100.00;101533.56;5016584;28;20714;-73
2021/11/20 02:30:33;;;;;;;9.77;5.27;;;;;;;9.65;100.00;101535.31;5024336;28;20867;-73
2021/11/20 02:33:02;;;;;;;9.93;5.80;;;;;;;9.63;100.00;101524.06;5017860;28;20294;-73
2021/11/20 02:35:40;;;;;;;8.40;5.37;;;;;;;9.61;100.00;101520.63;5022034;28;20192;-73
2021/11/20 02:38:10;;;;;;;9.20;5.57;;;;;;;9.63;100.00;101521.47;5023498;28;20205;-73
2021/11/20 02:40:38;;;;;;;7.10;5.13;;;;;;;9.62;100.00;101518.00;5025183;28;20197;-73
2021/11/20 02:43:05;;;;;;;10.20;6.27;;;;;;;9.61;100.00;101518.88;5027209;28;20218;-73
2021/11/20 02:45:41;;;;;;;8.30;6.70;;;;;;;9.62;100.00;101525.81;5026399;28;20727;-73
2021/11/20 02:48:09;;;;;;;9.10;5.67;;;;;;;9.61;100.00;101525.81;5025431;28;20205;-73
2021/11/20 02:50:45;;;;;;;11.83;6.97;;;;;;;9.63;100.00;101530.13;5027782;28;20246;-75
2021/11/20 02:53:16;;;;;;;9.20;6.50;;;;;;;9.62;100.00;101524.91;5025772;28;20206;-73
2021/11/20 02:55:45;;;;;;;12.30;7.23;;;;;;;9.62;100.00;101540.53;5025044;28;20225;-76
2021/11/20 02:58:14;;;;;;;10.53;7.13;;;;;;;9.62;100.00;101536.22;5027482;28;20199;-73
2021/11/20 03:00:53;;;;;;;10.33;6.90;;;;;;;9.61;100.00;101529.28;5024958;28;20271;-73
2021/11/20 03:03:20;;;;;;;12.27;6.77;;;;;;;9.62;100.00;101532.72;5028157;28;20567;-73
2021/11/20 03:05:48;;;;;;;9.00;6.97;;;;;;;9.58;100.00;101529.28;5025884;28;20206;-73
2021/11/20 03:08:14;;;;;;;10.00;6.70;;;;;;;9.58;100.00;101531.91;5045919;28;20696;-73
2021/11/20 03:10:42;;;;;;;13.37;7.80;;;;;;;9.58;100.00;101534.50;5023017;28;20307;-73
2021/11/20 03:13:10;;;;;;;10.83;7.47;;;;;;;9.56;100.00;101520.63;5028319;28;20465;-75
2021/11/20 03:15:36;;;;;;;12.87;7.73;;;;;;;9.56;100.00;101517.19;5027551;28;20605;-73
2021/11/20 03:18:04;;;;;;;10.80;8.07;;;;;;;9.58;100.00;101525.84;5028136;28;20208;-73
2021/11/20 03:20:31;;;;;;;13.87;7.60;;;;;;;9.57;100.00;101526.69;5021942;28;20225;-73
2021/11/20 03:23:00;;;;;;;11.93;8.23;;;;;;;9.56;100.00;101522.38;5043143;28;20202;-72
2021/11/20 03:25:27;;;;;;;12.43;7.97;;;;;;;9.57;100.00;101529.31;5025808;28;20217;-73
2021/11/20 03:27:55;;;;;;;11.00;7.67;;;;;;;9.55;100.00;101526.72;5023694;28;20200;-75
2021/11/20 03:30:23;;;;;;;12.47;8.10;;;;;;;9.55;100.00;101531.94;5025320;28;20227;-74
2021/11/20 03:32:50;;;;;;;10.73;8.27;;;;;;;9.55;100.00;101533.66;5044586;28;20288;-74
2021/11/20 03:35:24;;;;;;;10.13;8.20;;;;;;;9.54;100.00;101527.59;5022279;28;20257;-75
2021/11/20 03:37:53;;;;;;;15.27;8.40;;;;;;;9.56;100.00;101532.78;5025450;28;20226;-75
2021/11/20 03:40:24;;;;;;;15.17;9.97;;;;;;;9.55;100.00;101531.94;5024004;28;20213;-75
2021/11/20 03:42:51;;;;;;;13.70;8.50;;;;;;;9.55;100.00;101529.34;5025407;28;20220;-75
2021/11/20 03:45:21;;;;;;;14.37;9.37;;;;;;;9.53;100.00;101523.25;5028950;28;20208;-75
2021/11/20 03:47:51;;;;;;;13.63;9.53;;;;;;;9.54;100.00;101521.53;5023741;28;20732;-73
2021/11/20 03:50:18;;;;;;;12.97;9.13;;;;;;;9.52;100.00;101531.09;5023997;28;20220;-73
2021/11/20 03:52:47;;;;;;;12.43;7.83;;;;;;;9.50;100.00;101528.50;5039140;28;20228;-73
2021/11/20 03:55:17;;;;;;;16.60;9.53;;;;;;;9.51;100.00;101529.34;5027058;28;20603;-73
2021/11/20 03:57:44;;;;;;;14.40;8.77;;;;;;;9.50;100.00;101527.63;5023517;28;20201;-73
2021/11/20 04:00:14;;;;;;;13.67;9.27;;;;;;;9.50;100.00;101530.22;5023144;28;20324;-72
2021/11/20 04:02:41;;;;;;;16.00;9.43;;;;;;;9.51;100.00;101521.56;5038351;28;20682;-72
2021/11/20 04:05:10;;;;;;;11.93;8.63;;;;;;;9.51;100.00;101524.16;5042931;28;20223;-72
2021/11/20 04:07:37;;;;;;;12.23;7.87;;;;;;;9.49;100.00;101534.56;5021120;28;20647;-73
2021/11/20 04:10:07;;;;;;;13.33;8.83;;;;;;;9.47;100.00;101531.97;5024399;28;20263;-73
2021/11/20 04:12:34;;;;;;;12.63;8.47;;;;;;;9.45;100.00;101538.09;5036869;28;20318;-73
2021/11/20 04:15:00;;;;;;;12.23;8.47;;;;;;;9.43;100.00;101530.28;5040010;28;20197;-72
2021/11/20 04:17:27;;;;;;;14.23;8.10;;;;;;;9.43;100.00;101524.22;5022113;28;20641;-73
2021/11/20 04:19:54;;;;;;;14.23;8.37;;;;;;;9.40;100.00;101526.84;5019794;28;20374;-72
2021/11/20 04:22:20;;;;;;;14.37;8.50;;;;;;;9.37;100.00;101532.91;5020877;28;20201;-73
2021/11/20 04:24:46;;;;;;;13.23;7.70;;;;;;;9.36;100.00;101527.75;5040918;28;20451;-72
2021/11/20 04:27:20;;;;;;;12.37;8.37;;;;;;;9.35;100.00;101531.22;5018890;28;20726;-73
2021/11/20 04:30:12;;;;;;;14.03;8.30;;;;;;;9.32;100.00;101541.63;5023194;28;20276;-72
2021/11/20 04:32:39;;;;;;;13.33;8.20;;;;;;;9.28;100.00;101526.03;5022078;28;20224;-73
2021/11/20 04:35:09;;;;;;;10.83;7.83;;;;;;;9.25;100.00;101527.78;5022607;28;20203;-72
2021/11/20 04:37:37;;;;;;;14.47;8.07;;;;;;;9.23;100.00;101530.44;5023840;28;20207;-73
2021/11/20 04:40:05;;;;;;;13.00;8.10;;;;;;;9.22;100.00;101530.44;5017932;28;20234;-73
2021/11/20 04:42:34;;;;;;;10.70;7.80;;;;;;;9.19;100.00;101527.84;5024374;28;20197;-72
2021/11/20 04:45:00;;;;;;;13.80;9.00;;;;;;;9.17;100.00;101522.63;5018325;28;20580;-72
2021/11/20 04:47:28;;;;;;;15.70;8.70;;;;;;;9.14;100.00;101517.44;5024934;28;20206;-72
2021/11/20 04:49:55;;;;;;;9.60;7.70;;;;;;;9.12;100.00;101515.75;5038620;28;20245;-73
2021/11/20 04:52:21;;;;;;;11.73;8.20;;;;;;;9.10;100.00;101513.16;5024803;28;20307;-73
2021/11/20 04:54:48;;;;;;;11.90;8.70;;;;;;;9.08;100.00;101507.94;5022106;28;20204;-73
2021/11/20 04:57:15;;;;;;;13.33;8.37;;;;;;;9.07;100.00;101511.41;5019873;28;20366;-73
2021/11/20 04:59:43;;;;;;;11.67;8.07;;;;;;;9.06;100.00;101514.91;5022866;28;20223;-73
2021/11/20 05:02:10;;;;;;;13.03;8.23;;;;;;;9.05;100.00;101515.75;5041949;28;20232;-72
2021/11/20 05:04:39;;;;;;;13.07;8.17;;;;;;;9.06;100.00;101519.25;5018744;28;20218;-73
2021/11/20 05:07:05;;;;;;;13.13;7.93;;;;;;;9.03;100.00;101514.91;5023540;28;20214;-72
2021/11/20 05:09:32;;;;;;;9.93;7.47;;;;;;;9.03;100.00;101516.66;5037835;28;20250;-73
2021/11/20 05:11:59;;;;;;;10.97;8.20;;;;;;;9.02;100.00;101512.31;5019203;28;20268;-73
2021/11/20 05:14:26;;;;;;;12.57;7.63;;;;;;;9.03;100.00;101517.50;5020808;28;20328;-73
2021/11/20 05:16:54;;;;;;;15.73;8.03;;;;;;;9.01;100.00;101516.66;5022161;28;20298;-72
2021/11/20 05:19:21;;;;;;;12.90;8.70;;;;;;;9.01;100.00;101524.47;5021608;28;20297;-75
2021/11/20 05:21:48;;;;;;;14.93;8.70;;;;;;;9.00;100.00;101514.06;5023715;28;20223;-73
2021/11/20 05:24:18;;;;;;;11.93;8.17;;;;;;;9.00;100.00;101522.72;5023682;28;20203;-75
2021/11/20 05:26:45;;;;;;;12.83;8.17;;;;;;;8.97;100.00;101520.16;5024369;28;20506;-74
2021/11/20 05:29:21;;;;;;;11.77;7.77;;;;;;;8.96;100.00;101512.38;5020300;28;20227;-75
2021/11/20 05:31:55;;;;;;;15.40;9.40;;;;;;;8.96;100.00;101515.81;5020348;28;20764;-74
2021/11/20 05:34:22;;;;;;;12.33;7.97;;;;;;;8.95;100.00;101511.47;5023289;28;20569;-73
2021/11/20 05:36:49;;;;;;;11.67;8.50;;;;;;;8.94;100.00;101506.31;5018792;28;20265;-75
2021/11/20 05:39:19;;;;;;;15.67;8.57;;;;;;;8.93;100.00;101510.63;5025279;28;20258;-75
2021/11/20 05:41:46;;;;;;;12.73;8.60;;;;;;;8.92;100.00;101498.50;5020222;28;20489;-75
2021/11/20 05:44:13;;;;;;;10.33;7.67;;;;;;;8.91;100.00;101513.22;5021774;28;20211;-76
2021/11/20 05:46:58;;;;;;;17.67;9.43;;;;;;;8.89;100.00;101501.97;5022424;28;20280;-72
2021/11/20 05:49:26;;;;;;;19.67;9.87;;;;;;;8.88;100.00;101497.66;5024122;28;20716;-74
2021/11/20 05:51:53;;;;;;;11.27;8.43;;;;;;;8.89;100.00;101501.97;5033577;28;20250;-72
2021/11/20 05:54:20;;;;;;;14.87;9.13;;;;;;;8.89;100.00;101511.53;5022092;28;20214;-75
2021/11/20 05:56:51;;;;;;;13.50;9.13;;;;;;;8.88;100.00;101505.47;5018058;28;20204;-74
2021/11/20 05:59:17;;;;;;;14.50;8.93;;;;;;;8.89;100.00;101509.78;5025784;28;21244;-75
2021/11/20 06:01:45;;;;;;;10.60;7.77;;;;;;;8.89;100.00;101509.78;5021394;28;20319;-75
2021/11/20 06:04:11;;;;;;;11.63;8.17;;;;;;;8.89;100.00;101516.72;5024726;28;20265;-75
2021/11/20 06:06:40;;;;;;;14.97;9.33;;;;;;;8.90;100.00;101518.47;5041999;28;20210;-75
2021/11/20 06:09:07;;;;;;;13.53;8.70;;;;;;;8.89;100.00;101525.38;5019811;28;20235;-75
2021/11/20 06:11:35;;;;;;;15.73;8.93;;;;;;;8.88;100.00;101522.78;5026270;28;20224;-75
2021/11/20 06:14:02;;;;;;;16.43;9.10;;;;;;;8.88;100.00;101525.38;5023848;28;20203;-75
2021/11/20 06:16:36;;;;;;;13.83;8.87;;;;;;;8.87;100.00;101532.34;5025535;28;20206;-75
2021/11/20 06:19:04;;;;;;;12.87;8.10;;;;;;;8.86;100.00;101538.38;5025206;28;20623;-75
2021/11/20 06:21:30;;;;;;;14.70;8.87;;;;;;;8.86;100.00;101533.19;5024423;28;20223;-75
2021/11/20 06:23:58;;;;;;;12.67;9.10;;;;;;;8.85;100.00;101523.69;5024969;28;20207;-75
2021/11/20 06:26:25;;;;;;;12.80;8.67;;;;;;;8.86;100.00;101537.53;5027067;28;20207;-75
2021/11/20 06:28:52;;;;;;;12.00;8.53;;;;;;;8.84;100.00;101534.09;5024495;28;20233;-74
2021/11/20 06:31:22;;;;;;;14.43;9.00;;;;;;;8.85;100.00;101538.44;5027312;28;20664;-75
2021/11/20 06:34:05;;;;;;;15.17;9.00;;;;;;;8.84;100.00;101537.53;5024521;28;20258;-75
2021/11/20 06:37:01;;;;;;;16.83;9.30;;;;;;;8.83;100.00;101535.84;4955969;28;20234;-75
2021/11/20 06:39:48;;;;;;;12.90;8.83;;;;;;;8.84;100.00;101537.53;5021400;28;20300;-75
2021/11/20 06:42:15;;;;;;;15.63;9.10;;;;;;;8.83;100.00;101538.44;5026406;28;20640;-75
2021/11/20 06:44:42;;;;;;;13.63;8.90;;;;;;;8.83;100.00;101538.44;5030997;28;20601;-75
2021/11/20 06:47:09;;;;;;;13.90;8.47;;;;;;;8.83;100.00;101543.63;5025984;28;20724;-75
2021/11/20 06:49:37;;;;;;;13.77;8.80;;;;;;;8.83;100.00;101542.75;5024494;28;20296;-74
2021/11/20 06:52:04;;;;;;;14.00;9.43;;;;;;;8.84;100.00;101537.53;5026370;28;20313;-74
2021/11/20 06:54:50;;;;;;;12.37;8.53;;;;;;;8.83;100.00;101533.22;5044607;28;20226;-75
2021/11/20 06:57:52;;;;;;;17.57;9.03;;;;;;;8.82;100.00;101539.28;5025005;28;20463;-74
2021/11/20 07:00:53;;;;;;;13.73;7.43;;;;;;;8.83;100.00;101541.03;5019739;28;20204;-74
2021/11/20 07:03:29;;;;;;;13.97;7.67;;;;;;;8.83;100.00;101541.03;5027675;28;20630;-75
2021/11/20 07:06:10;;;;;;;14.50;8.17;;;;;;;8.83;100.00;101537.53;5027331;28;20211;-75
2021/11/20 07:08:36;;;;;;;10.07;6.87;;;;;;;8.85;100.00;101543.63;5040319;28;20227;-75
2021/11/20 07:11:04;;;;;;;11.20;7.10;;;;;;;8.85;100.00;101543.63;5044466;28;20579;-75
2021/11/20 07:13:31;;;;;;;9.17;7.47;;;;;;;8.85;100.00;101546.22;5027338;28;20603;-74
2021/11/20 07:15:58;;;;;;;8.60;7.13;;;;;;;8.87;100.00;101547.94;5025264;28;20571;-74
2021/11/20 07:18:26;;;;;;;8.87;6.63;;;;;;;8.88;100.00;101547.06;5026341;28;20626;-75
2021/11/20 07:21:12;;;;;;;13.13;6.67;;;;;;;8.90;100.00;101547.06;5038805;28;20204;-74
2021/11/20 07:23:53;;;;;;;9.90;6.33;;;;;;;8.89;100.00;101547.94;5044103;28;20611;-74
2021/11/20 07:26:23;;;;;;;9.17;6.20;;;;;;;8.91;100.00;101551.38;5025782;28;20274;-74
2021/11/20 07:28:50;;;;;;;8.00;6.20;;;;;;;8.91;100.00;101551.38;5024893;28;20607;-74
2021/11/20 07:31:19;;;;;;;10.23;6.83;;;;;;;8.91;100.00;101547.03;5026642;28;20199;-74
2021/11/20 07:33:46;;;;;;;11.40;6.80;;;;;;;8.91;100.00;101546.19;5046454;28;20274;-74
2021/11/20 07:36:13;;;;;;;9.40;6.47;;;;;;;8.92;100.00;101542.72;5023621;28;20782;-74
2021/11/20 07:38:42;;;;;;;10.27;6.27;;;;;;;8.92;100.00;101545.31;5019993;28;20747;-74
2021/11/20 07:41:10;;;;;;;8.83;5.90;;;;;;;8.93;100.00;101544.44;5025714;28;20670;-74
2021/11/20 07:43:39;;;;;;;7.57;6.00;;;;;;;8.91;100.00;101547.03;5021705;28;20254;-74
2021/11/20 07:46:15;;;;;;;10.27;6.23;;;;;;;8.92;100.00;101540.13;5026925;28;20481;-74
2021/11/20 07:48:48;;;;;;;9.93;6.40;;;;;;;8.94;100.00;101540.13;5015956;28;20666;-74
2021/11/20 07:51:19;;;;;;;8.87;6.17;;;;;;;8.94;100.00;101543.56;5026280;28;20230;-74
2021/11/20 07:53:48;;;;;;;8.53;5.77;;;;;;;8.96;100.00;101544.44;5019361;28;20302;-74
2021/11/20 07:56:19;;;;;;;9.70;6.20;;;;;;;8.98;100.00;101537.47;5022323;28;20214;-74
2021/11/20 07:58:50;;;;;;;7.17;5.87;;;;;;;9.01;100.00;101541.81;5022889;28;20740;-74
2021/11/20 08:01:17;;;;;;;8.37;5.73;;;;;;;9.01;100.00;101539.22;5025558;28;20543;-74
2021/11/20 08:03:45;;;;;;;10.63;7.30;;;;;;;9.02;100.00;101538.31;5023148;28;20656;-75
2021/11/20 08:06:27;;;;;;;10.53;6.63;;;;;;;9.03;100.00;101540.06;5017420;28;20237;-75
2021/11/20 08:09:14;;;;;;;9.60;6.60;;;;;;;9.05;100.00;101548.72;5024294;28;20700;-75
2021/11/20 08:11:46;;;;;;;9.90;5.83;;;;;;;9.06;100.00;101543.53;5038110;28;20223;-75
2021/11/20 08:14:16;;;;;;;10.53;6.37;;;;;;;9.08;100.00;101531.34;5024307;28;20214;-74
2021/11/20 08:16:45;;;;;;;8.93;6.30;;;;;;;9.09;100.00;101543.50;5039354;28;20273;-74
2021/11/20 08:19:12;;;;;;;9.77;6.27;;;;;;;9.10;100.00;101534.81;5041985;28;20684;-74
2021/11/20 08:21:57;;;;;;;9.17;6.47;;;;;;;9.13;100.00;101531.34;5038560;28;20215;-75
2021/11/20 08:24:28;;;;;;;9.03;6.43;;;;;;;9.14;100.00;101530.47;5041207;28;20353;-74
2021/11/20 08:26:56;;;;;;;10.40;6.33;;;;;;;9.12;100.00;101529.59;5021776;28;20241;-74
2021/11/20 08:29:29;;;;;;;8.37;6.20;;;;;;;9.12;100.00;101524.41;5026135;28;20440;-74
2021/11/20 08:31:57;;;;;;;10.13;6.50;;;;;;;9.16;100.00;101533.06;5023360;28;20758;-74
2021/11/20 08:34:27;;;;;;;10.70;6.87;;;;;;;9.18;100.00;101528.69;5020496;28;20220;-74
2021/11/20 08:37:20;;;;;;;9.63;6.20;;;;;;;9.19;100.00;101527.84;5008620;28;20209;-74
2021/11/20 08:39:58;;;;;;;11.43;6.63;;;;;;;9.21;100.00;101523.47;5020220;28;20223;-74
2021/11/20 08:42:24;;;;;;;8.77;6.43;;;;;;;9.24;100.00;101511.31;5024423;28;20200;-74
2021/11/20 08:44:54;;;;;;;10.53;6.97;;;;;;;9.24;100.00;101511.31;5024768;28;20261;-74
2021/11/20 08:47:28;;;;;;;7.83;5.87;;;;;;;9.26;100.00;101519.13;5018549;28;20204;-74
2021/11/20 08:49:55;;;;;;;8.57;6.37;;;;;;;9.27;100.00;101516.50;5022304;28;20225;-75
2021/11/20 08:52:21;;;;;;;9.23;6.50;;;;;;;9.29;100.00;101506.09;5020785;28;20239;-75
2021/11/20 08:54:49;;;;;;;11.43;6.33;;;;;;;9.27;100.00;101511.31;5021152;28;20754;-74
2021/11/20 08:57:16;;;;;;;9.10;6.13;;;;;;;9.29;100.00;101509.56;5022255;28;20204;-74
2021/11/20 08:59:46;;;;;;;9.60;6.87;;;;;;;9.33;100.00;101501.72;5022426;28;20231;-74
2021/11/20 09:02:37;;;;;;;10.93;6.80;;;;;;;9.33;100.00;101505.19;5040494;28;20282;-74
2021/11/20 09:05:09;;;;;;;14.73;9.40;;;;;;;9.33;100.00;101509.53;5022282;28;20215;-74
2021/11/20 09:07:42;;;;;;;9.17;6.43;;;;;;;9.33;100.00;101505.19;5018675;28;20285;-74
2021/11/20 09:10:12;;;;;;;10.67;7.90;;;;;;;9.36;100.00;101499.13;5037971;28;20244;-74
2021/11/20 09:12:43;;;;;;;14.10;7.67;;;;;;;9.38;100.00;101495.63;5021850;28;20222;-75
2021/11/20 09:15:14;;;;;;;8.37;6.60;;;;;;;9.41;100.00;101502.53;5037859;28;20201;-74
2021/11/20 09:17:44;;;;;;;14.27;7.10;;;;;;;9.40;100.00;101490.41;5038465;28;20204;-74
2021/11/20 09:20:17;;;;;;;12.83;7.83;;;;;;;9.40;100.00;101490.41;5020833;28;20232;-74
2021/11/20 09:22:44;;;;;;;10.50;6.97;;;;;;;9.42;100.00;101492.09;5021874;28;20292;-74
2021/11/20 09:25:21;;;;;;;10.60;7.17;;;;;;;9.39;100.00;101483.44;5037257;28;20356;-74
2021/11/20 09:27:50;;;;;;;10.93;7.57;;;;;;;9.39;100.00;101484.34;5018302;28;20212;-74
2021/11/20 09:30:21;;;;;;;9.43;7.37;;;;;;;9.39;100.00;101488.66;5017639;28;20225;-74
2021/11/20 09:32:49;;;;;;;10.20;6.97;;;;;;;9.38;100.00;101492.16;5035936;28;20219;-73
2021/11/20 09:35:24;;;;;;;13.47;8.10;;;;;;;9.38;100.00;101484.34;5020477;28;20201;-73
2021/11/20 09:38:11;;;;;;;12.80;8.30;;;;;;;9.39;100.00;101481.72;5045820;28;20212;-73
2021/11/20 09:40:41;;;;;;;13.23;8.20;;;;;;;9.38;100.00;101481.75;5017520;28;20217;-73
2021/11/20 09:43:18;;;;;;;17.80;9.23;;;;;;;9.38;100.00;101473.94;5020780;28;20205;-73
2021/11/20 09:45:51;;;;;;;12.70;9.43;;;;;;;9.38;100.00;101473.94;5017942;28;20392;-73
2021/11/20 09:48:27;;;;;;;15.03;8.90;;;;;;;9.37;100.00;101473.03;5022308;28;20205;-74
2021/11/20 09:51:07;;;;;;;15.27;9.37;;;;;;;9.39;100.00;101470.44;5019634;28;20261;-73
2021/11/20 09:53:34;;;;;;;13.07;8.77;;;;;;;9.38;100.00;101464.38;5019357;28;20724;-73
2021/11/20 09:56:05;;;;;;;12.53;8.13;;;;;;;9.38;100.00;101463.53;5040829;28;20208;-73
2021/11/20 09:58:38;;;;;;;13.93;8.57;;;;;;;9.38;100.00;101469.59;5039791;28;20232;-72
2021/11/20 10:01:17;;;;;;;18.17;11.37;;;;;;;9.36;100.00;101454.88;5035680;28;20651;-73
2021/11/20 10:03:48;;;;;;;16.43;9.90;;;;;;;9.36;100.00;101450.53;5039781;28;20384;-73
2021/11/20 10:06:27;;;;;;;15.10;9.23;;;;;;;9.36;100.00;101458.31;5038254;28;20202;-73
2021/11/20 10:09:08;;;;;;;15.53;9.03;;;;;;;9.39;100.00;101447.91;5020413;28;20548;-73
2021/11/20 10:11:38;;;;;;;16.13;10.23;;;;;;;9.39;100.00;101444.41;5040470;28;20204;-74
2021/11/20 10:14:12;;;;;;;15.67;9.70;;;;;;;9.39;100.00;101442.69;5036389;28;20732;-73
2021/11/20 10:16:46;;;;;;;14.20;10.23;;;;;;;9.40;100.00;101444.41;5034689;28;20584;-73
2021/11/20 10:19:17;;;;;;;15.83;10.37;;;;;;;9.41;100.00;101450.47;5035117;28;20232;-73
2021/11/20 10:21:55;;;;;;;14.80;10.10;;;;;;;9.45;100.00;101441.78;5039762;28;20200;-73
2021/11/20 10:24:28;;;;;;;16.17;10.90;;;;;;;9.44;100.00;101440.88;5033821;28;20587;-72
2021/11/20 10:27:20;;;;;;;17.27;10.57;;;;;;;9.45;100.00;101439.16;5036463;28;20306;-73
2021/11/20 10:29:55;;;;;;;23.70;11.40;;;;;;;9.42;100.00;101447.84;5035840;28;20239;-73
2021/11/20 10:32:32;;;;;;;16.63;10.70;;;;;;;9.42;100.00;101444.38;5039236;28;20209;-73
2021/11/20 10:35:03;;;;;;;17.93;11.10;;;;;;;9.45;100.00;101441.78;5038630;28;20206;-73
2021/11/20 10:37:36;;;;;;;15.07;9.83;;;;;;;9.51;100.00;101443.44;5028110;28;20650;-73
2021/11/20 10:40:06;;;;;;;16.07;10.70;;;;;;;9.57;100.00;101444.28;5036810;28;20228;-73
2021/11/20 10:42:35;;;;;;;17.17;11.90;;;;;;;9.66;100.00;101433.75;5037991;28;20227;-73
2021/11/20 10:45:10;;;;;;;18.20;10.53;;;;;;;9.66;100.00;101427.69;5039120;28;20202;-73
2021/11/20 10:47:40;;;;;;;18.63;11.10;;;;;;;9.66;100.00;101430.31;5036317;28;20594;-73
2021/11/20 10:50:31;;;;;;;17.53;10.83;;;;;;;9.69;100.00;101421.59;5034994;28;20228;-73
2021/11/20 10:53:40;;;;;;;16.57;11.10;;;;;;;9.74;100.00;101420.66;5011562;28;20315;-73
2021/11/20 10:56:20;;;;;;;16.63;10.90;;;;;;;9.77;100.00;101420.63;5031760;28;20215;-73
2021/11/20 10:59:32;;;;;;;18.83;10.70;;;;;;;9.83;100.00;101412.78;5039422;28;20293;-73
2021/11/20 11:02:19;;;;;;;17.47;10.63;;;;;;;9.88;100.00;101411.84;4976860;28;20356;-73
2021/11/20 11:05:19;;;;;;;20.00;10.80;;;;;;;9.91;100.00;101407.47;5039495;28;20657;-73
2021/11/20 11:07:56;;;;;;;16.70;10.33;;;;;;;9.88;100.00;101410.09;5016944;28;20207;-73
2021/11/20 11:10:32;;;;;;;17.67;11.00;;;;;;;9.91;100.00;101394.44;5035682;28;20229;-73
2021/11/20 11:13:01;;;;;;;17.97;10.50;;;;;;;9.91;100.00;101393.59;5043176;28;20224;-73
2021/11/20 11:15:35;;;;;;;17.97;10.60;;;;;;;9.94;100.00;101396.16;5039591;28;20246;-73
2021/11/20 11:18:19;;;;;;;14.83;10.30;;;;;;;9.92;100.00;101384.88;5041222;28;20849;-73
2021/11/20 11:21:05;;;;;;;18.30;10.63;;;;;;;9.93;100.00;101384.88;5039223;28;20311;-73
2021/11/20 11:23:42;;;;;;;12.87;9.17;;;;;;;9.95;100.00;101382.25;5050684;28;20209;-74
2021/11/20 11:26:11;;;;;;;15.40;10.07;;;;;;;9.99;100.00;101373.50;5048362;28;20249;-74
2021/11/20 11:28:41;;;;;;;15.60;10.10;;;;;;;10.04;100.00;101367.38;5049300;28;20237;-73
2021/11/20 11:31:28;;;;;;;12.23;9.17;;;;;;;10.10;100.00;101365.59;5047965;28;20203;-74
2021/11/20 11:33:58;;;;;;;13.97;9.30;;;;;;;10.12;100.00;101362.06;5043866;28;20230;-73
2021/11/20 11:36:32;;;;;;;13.73;8.73;;;;;;;10.14;100.00;101364.66;5055695;28;20296;-74
2021/11/20 11:39:16;;;;;;;13.67;8.97;;;;;;;10.13;100.00;101350.78;5045163;28;20222;-74
2021/11/20 11:41:48;;;;;;;12.30;8.23;;;;;;;10.12;100.00;101353.41;5051489;28;20231;-74
2021/11/20 11:44:29;;;;;;;12.10;8.90;;;;;;;10.17;100.00;101346.38;5047078;28;20204;-74